sensor_id;sensor_type;location;lat;lon;timestamp;temperature;humidity
18729;DHT22;9493;51.884;5.188;2023-04-23T00:01:41;8.10;99.90
18729;DHT22;9493;51.884;5.188;2023-04-23T00:04:11;8.10;99.90
18729;DHT22;9493;51.884;5.188;2023-04-23T00:06:41;8.10;99.90
18729;DHT22;9493;51.884;5.188;2023-04-23T00:09:09;8.10;99.90
18729;DHT22;9493;51.884;5.188;2023-04-23T00:11:37;8.10;99.90
18729;DHT22;9493;51.884;5.188;2023-04-23T00:14:04;8.00;99.90
18729;DHT22;9493;51.884;5.188;2023-04-23T00:16:32;8.10;99.90
18729;DHT22;9493;51.884;5.188;2023-04-23T00:18:58;8.00;99.90
18729;DHT22;9493;51.884;5.188;2023-04-23T00:21:25;8.10;99.90
18729;DHT22;9493;51.884;5.188;2023-04-23T00:23:54;8.10;99.90
18729;DHT22;9493;51.884;5.188;2023-04-23T00:26:21;8.10;99.90
18729;DHT22;9493;51.884;5.188;2023-04-23T00:28:47;8.10;99.90
18729;DHT22;9493;51.884;5.188;2023-04-23T00:31:14;8.10;99.90
18729;DHT22;9493;51.884;5.188;2023-04-23T00:33:41;8.00;99.90
18729;DHT22;9493;51.884;5.188;2023-04-23T00:36:08;8.10;99.90
18729;DHT22;9493;51.884;5.188;2023-04-23T00:38:34;8.10;99.90
18729;DHT22;9493;51.884;5.188;2023-04-23T00:41:03;8.10;99.90
18729;DHT22;9493;51.884;5.188;2023-04-23T00:43:30;8.10;99.90
18729;DHT22;9493;51.884;5.188;2023-04-23T00:45:58;8.10;99.90
18729;DHT22;9493;51.884;5.188;2023-04-23T00:48:25;8.20;99.90
18729;DHT22;9493;51.884;5.188;2023-04-23T00:50:57;8.10;99.90
18729;DHT22;9493;51.884;5.188;2023-04-23T00:53:25;8.10;99.90
18729;DHT22;9493;51.884;5.188;2023-04-23T00:55:52;8.10;99.90
18729;DHT22;9493;51.884;5.188;2023-04-23T00:58:21;8.10;99.90
18729;DHT22;9493;51.884;5.188;2023-04-23T01:00:49;8.50;99.90
18729;DHT22;9493;51.884;5.188;2023-04-23T01:03:16;8.20;99.90
18729;DHT22;9493;51.884;5.188;2023-04-23T01:05:46;8.20;99.90
18729;DHT22;9493;51.884;5.188;2023-04-23T01:08:16;8.20;99.90
18729;DHT22;9493;51.884;5.188;2023-04-23T01:10:44;8.20;99.90
18729;DHT22;9493;51.884;5.188;2023-04-23T01:13:12;8.20;99.90
18729;DHT22;9493;51.884;5.188;2023-04-23T01:15:41;8.20;99.90
18729;DHT22;9493;51.884;5.188;2023-04-23T01:18:08;8.30;99.90
18729;DHT22;9493;51.884;5.188;2023-04-23T01:20:35;8.30;99.90
18729;DHT22;9493;51.884;5.188;2023-04-23T01:23:05;8.20;99.90
18729;DHT22;9493;51.884;5.188;2023-04-23T01:25:32;8.20;99.90
18729;DHT22;9493;51.884;5.188;2023-04-23T01:28:00;8.20;99.90
18729;DHT22;9493;51.884;5.188;2023-04-23T01:30:27;8.20;99.90
18729;DHT22;9493;51.884;5.188;2023-04-23T01:32:55;8.20;99.90
18729;DHT22;9493;51.884;5.188;2023-04-23T01:35:24;8.20;99.90
18729;DHT22;9493;51.884;5.188;2023-04-23T01:37:51;8.20;99.90
18729;DHT22;9493;51.884;5.188;2023-04-23T01:40:20;8.20;99.90
18729;DHT22;9493;51.884;5.188;2023-04-23T01:42:48;8.20;99.90
18729;DHT22;9493;51.884;5.188;2023-04-23T01:45:15;8.20;99.90
18729;DHT22;9493;51.884;5.188;2023-04-23T01:47:44;8.30;99.90
18729;DHT22;9493;51.884;5.188;2023-04-23T01:50:12;8.30;99.90
18729;DHT22;9493;51.884;5.188;2023-04-23T01:52:38;8.30;99.90
18729;DHT22;9493;51.884;5.188;2023-04-23T01:55:07;8.30;99.90
18729;DHT22;9493;51.884;5.188;2023-04-23T01:57:35;8.40;99.90
18729;DHT22;9493;51.884;5.188;2023-04-23T02:00:06;8.40;99.90
18729;DHT22;9493;51.884;5.188;2023-04-23T02:02:33;8.40;99.90
18729;DHT22;9493;51.884;5.188;2023-04-23T02:05:01;8.50;99.90
18729;DHT22;9493;51.884;5.188;2023-04-23T02:07:29;8.50;99.90
18729;DHT22;9493;51.884;5.188;2023-04-23T02:09:56;8.50;99.90
18729;DHT22;9493;51.884;5.188;2023-04-23T02:12:23;8.50;99.90
18729;DHT22;9493;51.884;5.188;2023-04-23T02:14:52;8.50;99.90
18729;DHT22;9493;51.884;5.188;2023-04-23T02:17:19;8.50;99.90
18729;DHT22;9493;51.884;5.188;2023-04-23T02:19:47;8.50;99.90
18729;DHT22;9493;51.884;5.188;2023-04-23T02:22:14;8.50;99.90
18729;DHT22;9493;51.884;5.188;2023-04-23T02:24:41;8.50;99.90
18729;DHT22;9493;51.884;5.188;2023-04-23T02:27:08;8.50;99.90
18729;DHT22;9493;51.884;5.188;2023-04-23T02:29:35;8.60;99.90
18729;DHT22;9493;51.884;5.188;2023-04-23T02:32:04;8.60;99.90
18729;DHT22;9493;51.884;5.188;2023-04-23T02:34:30;8.60;99.90
18729;DHT22;9493;51.884;5.188;2023-04-23T02:36:57;8.50;99.90
18729;DHT22;9493;51.884;5.188;2023-04-23T02:39:24;8.50;99.90
18729;DHT22;9493;51.884;5.188;2023-04-23T02:41:51;8.60;99.90
18729;DHT22;9493;51.884;5.188;2023-04-23T02:44:18;8.50;99.90
18729;DHT22;9493;51.884;5.188;2023-04-23T02:46:44;8.50;99.90
18729;DHT22;9493;51.884;5.188;2023-04-23T02:49:13;8.70;99.90
18729;DHT22;9493;51.884;5.188;2023-04-23T02:51:40;8.60;99.90
18729;DHT22;9493;51.884;5.188;2023-04-23T02:54:07;8.60;99.90
18729;DHT22;9493;51.884;5.188;2023-04-23T02:56:34;8.60;99.90
18729;DHT22;9493;51.884;5.188;2023-04-23T02:59:00;8.60;99.90
18729;DHT22;9493;51.884;5.188;2023-04-23T03:01:27;8.60;99.90
18729;DHT22;9493;51.884;5.188;2023-04-23T03:03:54;8.60;99.90
18729;DHT22;9493;51.884;5.188;2023-04-23T03:06:22;8.60;99.90
18729;DHT22;9493;51.884;5.188;2023-04-23T03:08:49;8.60;99.90
18729;DHT22;9493;51.884;5.188;2023-04-23T03:11:16;8.60;99.90
18729;DHT22;9493;51.884;5.188;2023-04-23T03:13:43;8.70;99.90
18729;DHT22;9493;51.884;5.188;2023-04-23T03:16:10;8.60;99.90
18729;DHT22;9493;51.884;5.188;2023-04-23T03:18:37;8.60;99.90
18729;DHT22;9493;51.884;5.188;2023-04-23T03:21:03;8.60;99.90
18729;DHT22;9493;51.884;5.188;2023-04-23T03:23:32;8.50;99.90
18729;DHT22;9493;51.884;5.188;2023-04-23T03:25:59;8.60;99.90
18729;DHT22;9493;51.884;5.188;2023-04-23T03:28:25;8.50;99.90
18729;DHT22;9493;51.884;5.188;2023-04-23T03:30:52;8.50;99.90
18729;DHT22;9493;51.884;5.188;2023-04-23T03:33:19;8.40;99.90
18729;DHT22;9493;51.884;5.188;2023-04-23T03:35:46;8.40;99.90
18729;DHT22;9493;51.884;5.188;2023-04-23T03:38:12;8.40;99.90
18729;DHT22;9493;51.884;5.188;2023-04-23T03:40:41;8.40;99.90
18729;DHT22;9493;51.884;5.188;2023-04-23T03:43:07;8.40;99.90
18729;DHT22;9493;51.884;5.188;2023-04-23T03:45:34;8.30;99.90
18729;DHT22;9493;51.884;5.188;2023-04-23T03:48:01;8.40;99.90
18729;DHT22;9493;51.884;5.188;2023-04-23T03:50:28;8.40;99.90
18729;DHT22;9493;51.884;5.188;2023-04-23T03:52:56;8.40;99.90
18729;DHT22;9493;51.884;5.188;2023-04-23T03:55:23;8.30;99.90
18729;DHT22;9493;51.884;5.188;2023-04-23T03:57:51;8.30;99.90
18729;DHT22;9493;51.884;5.188;2023-04-23T04:00:18;8.20;99.90
18729;DHT22;9493;51.884;5.188;2023-04-23T04:02:45;8.20;99.90
18729;DHT22;9493;51.884;5.188;2023-04-23T04:05:12;8.20;99.90
18729;DHT22;9493;51.884;5.188;2023-04-23T04:07:39;8.20;99.90
18729;DHT22;9493;51.884;5.188;2023-04-23T04:10:06;8.20;99.90
18729;DHT22;9493;51.884;5.188;2023-04-23T04:12:33;8.20;99.90
18729;DHT22;9493;51.884;5.188;2023-04-23T04:15:02;8.30;99.90
18729;DHT22;9493;51.884;5.188;2023-04-23T04:17:29;8.20;99.90
18729;DHT22;9493;51.884;5.188;2023-04-23T04:19:55;8.10;99.90
18729;DHT22;9493;51.884;5.188;2023-04-23T04:22:22;8.10;99.90
18729;DHT22;9493;51.884;5.188;2023-04-23T04:24:49;8.20;99.90
18729;DHT22;9493;51.884;5.188;2023-04-23T04:27:17;8.20;99.90
18729;DHT22;9493;51.884;5.188;2023-04-23T04:29:44;8.20;99.90
18729;DHT22;9493;51.884;5.188;2023-04-23T04:32:12;8.20;99.90
18729;DHT22;9493;51.884;5.188;2023-04-23T04:34:39;8.30;99.90
18729;DHT22;9493;51.884;5.188;2023-04-23T04:37:05;8.30;99.90
18729;DHT22;9493;51.884;5.188;2023-04-23T04:39:34;8.30;99.90
18729;DHT22;9493;51.884;5.188;2023-04-23T04:42:01;8.30;99.90
18729;DHT22;9493;51.884;5.188;2023-04-23T04:44:28;8.40;99.90
18729;DHT22;9493;51.884;5.188;2023-04-23T04:46:55;8.40;99.90
18729;DHT22;9493;51.884;5.188;2023-04-23T04:49:24;8.40;99.90
18729;DHT22;9493;51.884;5.188;2023-04-23T04:51:51;8.40;99.90
18729;DHT22;9493;51.884;5.188;2023-04-23T04:54:19;8.40;99.90
18729;DHT22;9493;51.884;5.188;2023-04-23T04:56:46;8.40;99.90
18729;DHT22;9493;51.884;5.188;2023-04-23T04:59:13;8.50;99.90
18729;DHT22;9493;51.884;5.188;2023-04-23T05:01:40;8.40;99.90
18729;DHT22;9493;51.884;5.188;2023-04-23T05:04:07;8.40;99.90
18729;DHT22;9493;51.884;5.188;2023-04-23T05:06:35;8.30;99.90
18729;DHT22;9493;51.884;5.188;2023-04-23T05:09:01;8.30;99.90
18729;DHT22;9493;51.884;5.188;2023-04-23T05:11:28;8.40;99.90
18729;DHT22;9493;51.884;5.188;2023-04-23T05:13:56;8.30;99.90
18729;DHT22;9493;51.884;5.188;2023-04-23T05:16:22;8.40;99.90
18729;DHT22;9493;51.884;5.188;2023-04-23T05:18:49;8.50;99.90
18729;DHT22;9493;51.884;5.188;2023-04-23T05:21:16;8.60;99.90
18729;DHT22;9493;51.884;5.188;2023-04-23T05:23:45;8.60;99.90
18729;DHT22;9493;51.884;5.188;2023-04-23T05:26:11;8.70;99.90
18729;DHT22;9493;51.884;5.188;2023-04-23T05:28:38;8.60;99.90
18729;DHT22;9493;51.884;5.188;2023-04-23T05:31:05;8.70;99.90
18729;DHT22;9493;51.884;5.188;2023-04-23T05:33:32;8.70;99.90
18729;DHT22;9493;51.884;5.188;2023-04-23T05:35:59;8.80;99.90
18729;DHT22;9493;51.884;5.188;2023-04-23T05:38:26;8.80;99.90
18729;DHT22;9493;51.884;5.188;2023-04-23T05:40:54;8.90;99.90
18729;DHT22;9493;51.884;5.188;2023-04-23T05:43:21;9.00;99.90
18729;DHT22;9493;51.884;5.188;2023-04-23T05:45:47;9.10;99.90
18729;DHT22;9493;51.884;5.188;2023-04-23T05:48:14;9.20;99.90
18729;DHT22;9493;51.884;5.188;2023-04-23T05:50:41;9.30;99.90
18729;DHT22;9493;51.884;5.188;2023-04-23T05:53:08;9.40;99.90
18729;DHT22;9493;51.884;5.188;2023-04-23T05:55:35;9.40;99.90
18729;DHT22;9493;51.884;5.188;2023-04-23T05:58:03;9.50;99.90
18729;DHT22;9493;51.884;5.188;2023-04-23T06:00:30;9.50;99.90
18729;DHT22;9493;51.884;5.188;2023-04-23T06:02:59;9.60;99.90
18729;DHT22;9493;51.884;5.188;2023-04-23T06:05:26;9.80;99.90
18729;DHT22;9493;51.884;5.188;2023-04-23T06:07:53;9.60;99.90
18729;DHT22;9493;51.884;5.188;2023-04-23T06:10:20;9.80;99.90
18729;DHT22;9493;51.884;5.188;2023-04-23T06:12:47;9.70;99.90
18729;DHT22;9493;51.884;5.188;2023-04-23T06:15:15;9.90;99.90
18729;DHT22;9493;51.884;5.188;2023-04-23T06:17:42;9.90;99.90
18729;DHT22;9493;51.884;5.188;2023-04-23T06:20:09;10.00;99.90
18729;DHT22;9493;51.884;5.188;2023-04-23T06:22:36;10.10;99.90
18729;DHT22;9493;51.884;5.188;2023-04-23T06:25:04;10.20;99.90
18729;DHT22;9493;51.884;5.188;2023-04-23T06:27:31;10.30;99.90
18729;DHT22;9493;51.884;5.188;2023-04-23T06:29:58;10.50;99.90
18729;DHT22;9493;51.884;5.188;2023-04-23T06:32:26;10.60;99.90
18729;DHT22;9493;51.884;5.188;2023-04-23T06:34:53;10.50;99.90
18729;DHT22;9493;51.884;5.188;2023-04-23T06:37:20;10.60;99.90
18729;DHT22;9493;51.884;5.188;2023-04-23T06:39:47;10.70;99.90
18729;DHT22;9493;51.884;5.188;2023-04-23T06:42:13;10.70;99.90
18729;DHT22;9493;51.884;5.188;2023-04-23T06:44:40;10.80;99.90
18729;DHT22;9493;51.884;5.188;2023-04-23T06:47:07;10.90;99.90
18729;DHT22;9493;51.884;5.188;2023-04-23T06:49:35;10.90;99.90
18729;DHT22;9493;51.884;5.188;2023-04-23T06:52:02;11.00;99.90
18729;DHT22;9493;51.884;5.188;2023-04-23T06:54:29;11.10;99.90
18729;DHT22;9493;51.884;5.188;2023-04-23T06:56:56;11.20;99.90
18729;DHT22;9493;51.884;5.188;2023-04-23T06:59:22;11.30;99.90
18729;DHT22;9493;51.884;5.188;2023-04-23T07:01:49;11.30;99.90
18729;DHT22;9493;51.884;5.188;2023-04-23T07:04:16;11.40;99.90
18729;DHT22;9493;51.884;5.188;2023-04-23T07:06:45;11.60;99.90
18729;DHT22;9493;51.884;5.188;2023-04-23T07:09:11;11.60;99.90
18729;DHT22;9493;51.884;5.188;2023-04-23T07:11:38;11.80;99.90
18729;DHT22;9493;51.884;5.188;2023-04-23T07:14:05;11.90;99.90
18729;DHT22;9493;51.884;5.188;2023-04-23T07:16:33;12.00;99.90
18729;DHT22;9493;51.884;5.188;2023-04-23T07:19:00;12.00;99.90
18729;DHT22;9493;51.884;5.188;2023-04-23T07:21:27;12.10;99.90
18729;DHT22;9493;51.884;5.188;2023-04-23T07:23:56;12.20;99.90
18729;DHT22;9493;51.884;5.188;2023-04-23T07:26:24;12.30;99.90
18729;DHT22;9493;51.884;5.188;2023-04-23T07:28:51;12.40;99.90
18729;DHT22;9493;51.884;5.188;2023-04-23T07:31:18;12.60;99.90
18729;DHT22;9493;51.884;5.188;2023-04-23T07:33:45;12.70;99.90
18729;DHT22;9493;51.884;5.188;2023-04-23T07:36:12;12.90;99.90
18729;DHT22;9493;51.884;5.188;2023-04-23T07:38:39;13.00;99.90
18729;DHT22;9493;51.884;5.188;2023-04-23T07:41:07;13.10;99.90
18729;DHT22;9493;51.884;5.188;2023-04-23T07:43:34;13.10;99.90
18729;DHT22;9493;51.884;5.188;2023-04-23T07:46:01;13.30;99.90
18729;DHT22;9493;51.884;5.188;2023-04-23T07:48:29;13.40;99.90
18729;DHT22;9493;51.884;5.188;2023-04-23T07:50:56;13.40;99.90
18729;DHT22;9493;51.884;5.188;2023-04-23T07:53:23;13.60;99.90
18729;DHT22;9493;51.884;5.188;2023-04-23T07:55:50;13.60;99.90
18729;DHT22;9493;51.884;5.188;2023-04-23T07:58:19;13.80;99.90
18729;DHT22;9493;51.884;5.188;2023-04-23T08:00:46;13.70;99.90
18729;DHT22;9493;51.884;5.188;2023-04-23T08:03:13;13.80;99.90
18729;DHT22;9493;51.884;5.188;2023-04-23T08:05:40;13.90;99.90
18729;DHT22;9493;51.884;5.188;2023-04-23T08:08:07;14.20;99.90
18729;DHT22;9493;51.884;5.188;2023-04-23T08:10:34;14.50;99.90
18729;DHT22;9493;51.884;5.188;2023-04-23T08:13:01;14.30;99.90
18729;DHT22;9493;51.884;5.188;2023-04-23T08:15:29;14.20;99.90
18729;DHT22;9493;51.884;5.188;2023-04-23T08:17:56;14.40;99.90
18729;DHT22;9493;51.884;5.188;2023-04-23T08:20:24;14.60;99.90
18729;DHT22;9493;51.884;5.188;2023-04-23T08:22:50;15.00;99.90
18729;DHT22;9493;51.884;5.188;2023-04-23T08:25:18;15.30;99.90
18729;DHT22;9493;51.884;5.188;2023-04-23T08:27:46;15.00;99.90
18729;DHT22;9493;51.884;5.188;2023-04-23T08:30:13;15.00;99.90
18729;DHT22;9493;51.884;5.188;2023-04-23T08:32:41;15.50;99.90
18729;DHT22;9493;51.884;5.188;2023-04-23T08:35:08;15.40;99.90
18729;DHT22;9493;51.884;5.188;2023-04-23T08:37:35;15.80;99.90
18729;DHT22;9493;51.884;5.188;2023-04-23T08:40:04;16.00;99.90
18729;DHT22;9493;51.884;5.188;2023-04-23T08:42:37;16.20;99.90
18729;DHT22;9493;51.884;5.188;2023-04-23T08:45:08;16.00;99.90
18729;DHT22;9493;51.884;5.188;2023-04-23T08:47:36;16.30;99.90
18729;DHT22;9493;51.884;5.188;2023-04-23T08:50:09;16.60;99.90
18729;DHT22;9493;51.884;5.188;2023-04-23T08:52:39;16.60;99.90
18729;DHT22;9493;51.884;5.188;2023-04-23T08:55:08;16.50;99.90
18729;DHT22;9493;51.884;5.188;2023-04-23T08:57:37;16.60;99.90
18729;DHT22;9493;51.884;5.188;2023-04-23T09:00:05;16.60;99.90
18729;DHT22;9493;51.884;5.188;2023-04-23T09:02:33;16.90;99.90
18729;DHT22;9493;51.884;5.188;2023-04-23T09:05:01;16.80;99.90
18729;DHT22;9493;51.884;5.188;2023-04-23T09:07:30;17.10;99.90
18729;DHT22;9493;51.884;5.188;2023-04-23T09:09:57;17.20;99.90
18729;DHT22;9493;51.884;5.188;2023-04-23T09:12:24;17.00;99.90
18729;DHT22;9493;51.884;5.188;2023-04-23T09:14:51;17.40;99.90
18729;DHT22;9493;51.884;5.188;2023-04-23T09:17:21;17.80;99.90
18729;DHT22;9493;51.884;5.188;2023-04-23T09:19:49;17.90;99.90
18729;DHT22;9493;51.884;5.188;2023-04-23T09:22:38;17.50;99.90
18729;DHT22;9493;51.884;5.188;2023-04-23T09:25:06;17.70;99.90
18729;DHT22;9493;51.884;5.188;2023-04-23T09:27:33;18.10;99.90
18729;DHT22;9493;51.884;5.188;2023-04-23T09:30:01;18.10;99.90
18729;DHT22;9493;51.884;5.188;2023-04-23T09:32:32;18.00;99.90
18729;DHT22;9493;51.884;5.188;2023-04-23T09:35:01;17.70;99.90
18729;DHT22;9493;51.884;5.188;2023-04-23T09:37:28;17.50;99.90
18729;DHT22;9493;51.884;5.188;2023-04-23T09:39:59;17.70;99.90
18729;DHT22;9493;51.884;5.188;2023-04-23T09:42:26;18.10;99.90
18729;DHT22;9493;51.884;5.188;2023-04-23T09:44:55;18.30;99.90
18729;DHT22;9493;51.884;5.188;2023-04-23T09:47:23;18.50;99.90
18729;DHT22;9493;51.884;5.188;2023-04-23T09:49:50;18.20;99.90
18729;DHT22;9493;51.884;5.188;2023-04-23T09:52:17;18.10;99.90
18729;DHT22;9493;51.884;5.188;2023-04-23T09:54:45;18.20;99.90
18729;DHT22;9493;51.884;5.188;2023-04-23T09:57:13;18.30;99.90
18729;DHT22;9493;51.884;5.188;2023-04-23T09:59:40;18.30;99.90
18729;DHT22;9493;51.884;5.188;2023-04-23T10:02:07;18.70;99.90
18729;DHT22;9493;51.884;5.188;2023-04-23T10:04:34;19.00;99.90
18729;DHT22;9493;51.884;5.188;2023-04-23T10:07:02;18.80;99.90
18729;DHT22;9493;51.884;5.188;2023-04-23T10:09:32;19.00;99.90
18729;DHT22;9493;51.884;5.188;2023-04-23T10:12:00;18.50;99.90
18729;DHT22;9493;51.884;5.188;2023-04-23T10:14:29;18.10;99.90
18729;DHT22;9493;51.884;5.188;2023-04-23T10:16:57;18.40;99.90
18729;DHT22;9493;51.884;5.188;2023-04-23T10:19:25;18.30;99.90
18729;DHT22;9493;51.884;5.188;2023-04-23T10:21:54;18.40;99.90
18729;DHT22;9493;51.884;5.188;2023-04-23T10:24:23;18.00;99.90
18729;DHT22;9493;51.884;5.188;2023-04-23T10:26:56;17.80;99.90
18729;DHT22;9493;51.884;5.188;2023-04-23T10:29:26;18.00;99.90
18729;DHT22;9493;51.884;5.188;2023-04-23T10:31:57;18.00;99.90
18729;DHT22;9493;51.884;5.188;2023-04-23T10:34:24;18.10;99.90
18729;DHT22;9493;51.884;5.188;2023-04-23T10:36:53;18.60;99.90
18729;DHT22;9493;51.884;5.188;2023-04-23T10:39:21;18.80;99.90
18729;DHT22;9493;51.884;5.188;2023-04-23T10:41:48;19.20;99.90
18729;DHT22;9493;51.884;5.188;2023-04-23T10:44:15;19.10;99.90
18729;DHT22;9493;51.884;5.188;2023-04-23T10:46:51;19.10;99.90
18729;DHT22;9493;51.884;5.188;2023-04-23T10:49:21;18.80;99.90
18729;DHT22;9493;51.884;5.188;2023-04-23T10:51:57;19.00;99.90
18729;DHT22;9493;51.884;5.188;2023-04-23T10:54:28;18.30;99.90
18729;DHT22;9493;51.884;5.188;2023-04-23T10:56:58;18.10;99.90
18729;DHT22;9493;51.884;5.188;2023-04-23T10:59:26;18.10;99.90
18729;DHT22;9493;51.884;5.188;2023-04-23T11:01:55;18.70;99.90
18729;DHT22;9493;51.884;5.188;2023-04-23T11:04:25;18.80;99.90
18729;DHT22;9493;51.884;5.188;2023-04-23T11:06:54;18.70;99.90
18729;DHT22;9493;51.884;5.188;2023-04-23T11:09:29;18.60;99.90
18729;DHT22;9493;51.884;5.188;2023-04-23T11:11:56;18.70;99.90
18729;DHT22;9493;51.884;5.188;2023-04-23T11:14:33;18.90;99.90
18729;DHT22;9493;51.884;5.188;2023-04-23T11:17:00;18.70;99.90
18729;DHT22;9493;51.884;5.188;2023-04-23T11:19:29;18.60;99.90
18729;DHT22;9493;51.884;5.188;2023-04-23T11:21:57;18.70;99.90
18729;DHT22;9493;51.884;5.188;2023-04-23T11:24:26;18.90;99.90
18729;DHT22;9493;51.884;5.188;2023-04-23T11:26:54;19.00;99.90
18729;DHT22;9493;51.884;5.188;2023-04-23T11:29:22;18.90;99.90
18729;DHT22;9493;51.884;5.188;2023-04-23T11:31:49;18.50;99.90
18729;DHT22;9493;51.884;5.188;2023-04-23T11:34:17;18.30;99.90
18729;DHT22;9493;51.884;5.188;2023-04-23T11:36:46;18.10;99.90
18729;DHT22;9493;51.884;5.188;2023-04-23T11:39:13;18.10;99.90
18729;DHT22;9493;51.884;5.188;2023-04-23T11:41:40;18.50;99.90
18729;DHT22;9493;51.884;5.188;2023-04-23T11:44:08;18.30;99.90
18729;DHT22;9493;51.884;5.188;2023-04-23T11:46:36;18.10;99.90
18729;DHT22;9493;51.884;5.188;2023-04-23T11:49:03;17.80;99.90
18729;DHT22;9493;51.884;5.188;2023-04-23T11:51:30;18.00;99.90
18729;DHT22;9493;51.884;5.188;2023-04-23T11:54:03;18.20;99.90
18729;DHT22;9493;51.884;5.188;2023-04-23T11:56:31;18.50;99.90
18729;DHT22;9493;51.884;5.188;2023-04-23T11:59:00;18.70;99.90
18729;DHT22;9493;51.884;5.188;2023-04-23T12:01:39;18.60;99.90
18729;DHT22;9493;51.884;5.188;2023-04-23T12:04:10;18.80;99.90
18729;DHT22;9493;51.884;5.188;2023-04-23T12:06:39;18.80;99.90
18729;DHT22;9493;51.884;5.188;2023-04-23T12:09:08;19.40;99.90
18729;DHT22;9493;51.884;5.188;2023-04-23T12:11:36;19.30;99.90
18729;DHT22;9493;51.884;5.188;2023-04-23T12:14:03;19.10;99.90
18729;DHT22;9493;51.884;5.188;2023-04-23T12:16:35;19.20;99.90
18729;DHT22;9493;51.884;5.188;2023-04-23T12:19:02;19.10;99.90
18729;DHT22;9493;51.884;5.188;2023-04-23T12:21:29;19.30;99.90
18729;DHT22;9493;51.884;5.188;2023-04-23T12:23:57;19.60;99.90
18729;DHT22;9493;51.884;5.188;2023-04-23T12:26:26;19.20;99.90
18729;DHT22;9493;51.884;5.188;2023-04-23T12:28:55;18.70;99.90
18729;DHT22;9493;51.884;5.188;2023-04-23T12:31:24;18.70;99.90
18729;DHT22;9493;51.884;5.188;2023-04-23T12:34:03;19.30;99.90
18729;DHT22;9493;51.884;5.188;2023-04-23T12:36:31;18.90;99.90
18729;DHT22;9493;51.884;5.188;2023-04-23T12:39:17;18.90;99.90
18729;DHT22;9493;51.884;5.188;2023-04-23T12:41:47;19.00;99.90
18729;DHT22;9493;51.884;5.188;2023-04-23T12:44:14;18.80;99.90
18729;DHT22;9493;51.884;5.188;2023-04-23T12:46:40;18.80;99.90
18729;DHT22;9493;51.884;5.188;2023-04-23T12:49:07;18.40;99.90
18729;DHT22;9493;51.884;5.188;2023-04-23T12:51:34;18.00;99.90
18729;DHT22;9493;51.884;5.188;2023-04-23T12:54:01;17.70;99.90
18729;DHT22;9493;51.884;5.188;2023-04-23T12:56:28;17.40;99.90
18729;DHT22;9493;51.884;5.188;2023-04-23T12:58:56;17.70;99.90
18729;DHT22;9493;51.884;5.188;2023-04-23T13:01:26;17.50;99.90
18729;DHT22;9493;51.884;5.188;2023-04-23T13:03:53;17.70;99.90
18729;DHT22;9493;51.884;5.188;2023-04-23T13:06:21;17.60;99.90
18729;DHT22;9493;51.884;5.188;2023-04-23T13:08:48;17.60;99.90
18729;DHT22;9493;51.884;5.188;2023-04-23T13:11:15;17.70;99.90
18729;DHT22;9493;51.884;5.188;2023-04-23T13:13:42;17.60;99.90
18729;DHT22;9493;51.884;5.188;2023-04-23T13:16:10;17.50;99.90
18729;DHT22;9493;51.884;5.188;2023-04-23T13:18:37;17.90;99.90
18729;DHT22;9493;51.884;5.188;2023-04-23T13:21:04;17.60;99.90
18729;DHT22;9493;51.884;5.188;2023-04-23T13:23:30;17.80;99.90
18729;DHT22;9493;51.884;5.188;2023-04-23T13:25:57;17.90;99.90
18729;DHT22;9493;51.884;5.188;2023-04-23T13:28:24;18.30;99.90
18729;DHT22;9493;51.884;5.188;2023-04-23T13:30:51;18.30;99.90
18729;DHT22;9493;51.884;5.188;2023-04-23T13:33:19;18.00;99.90
18729;DHT22;9493;51.884;5.188;2023-04-23T13:35:46;18.10;99.90
18729;DHT22;9493;51.884;5.188;2023-04-23T13:38:13;18.10;99.90
18729;DHT22;9493;51.884;5.188;2023-04-23T13:40:40;18.20;99.90
18729;DHT22;9493;51.884;5.188;2023-04-23T13:43:07;18.20;99.90
18729;DHT22;9493;51.884;5.188;2023-04-23T13:45:33;17.90;99.90
18729;DHT22;9493;51.884;5.188;2023-04-23T13:48:00;17.70;99.90
18729;DHT22;9493;51.884;5.188;2023-04-23T13:50:30;17.50;99.90
18729;DHT22;9493;51.884;5.188;2023-04-23T13:52:57;17.70;99.90
18729;DHT22;9493;51.884;5.188;2023-04-23T13:55:24;17.70;99.90
18729;DHT22;9493;51.884;5.188;2023-04-23T13:57:51;17.80;99.90
18729;DHT22;9493;51.884;5.188;2023-04-23T14:00:22;17.70;99.90
18729;DHT22;9493;51.884;5.188;2023-04-23T14:02:49;17.90;99.90
18729;DHT22;9493;51.884;5.188;2023-04-23T14:05:16;18.00;99.90
18729;DHT22;9493;51.884;5.188;2023-04-23T14:07:44;17.80;99.90
18729;DHT22;9493;51.884;5.188;2023-04-23T14:10:11;17.70;99.90
18729;DHT22;9493;51.884;5.188;2023-04-23T14:12:39;17.50;99.90
18729;DHT22;9493;51.884;5.188;2023-04-23T14:15:07;17.50;99.90
18729;DHT22;9493;51.884;5.188;2023-04-23T14:17:34;17.50;99.90
18729;DHT22;9493;51.884;5.188;2023-04-23T14:20:01;17.40;99.90
18729;DHT22;9493;51.884;5.188;2023-04-23T14:22:30;17.40;99.90
18729;DHT22;9493;51.884;5.188;2023-04-23T14:25:01;17.10;99.90
18729;DHT22;9493;51.884;5.188;2023-04-23T14:27:31;17.00;99.90
18729;DHT22;9493;51.884;5.188;2023-04-23T14:30:03;16.60;99.90
18729;DHT22;9493;51.884;5.188;2023-04-23T14:32:30;16.20;99.90
18729;DHT22;9493;51.884;5.188;2023-04-23T14:34:57;15.60;99.90
18729;DHT22;9493;51.884;5.188;2023-04-23T14:37:24;15.20;99.90
18729;DHT22;9493;51.884;5.188;2023-04-23T14:39:51;14.80;99.90
18729;DHT22;9493;51.884;5.188;2023-04-23T14:42:19;14.10;99.90
18729;DHT22;9493;51.884;5.188;2023-04-23T14:44:46;13.80;99.90
18729;DHT22;9493;51.884;5.188;2023-04-23T14:47:12;13.40;99.90
18729;DHT22;9493;51.884;5.188;2023-04-23T14:49:40;13.10;99.90
18729;DHT22;9493;51.884;5.188;2023-04-23T14:52:07;13.30;99.90
18729;DHT22;9493;51.884;5.188;2023-04-23T14:54:33;13.10;99.90
18729;DHT22;9493;51.884;5.188;2023-04-23T14:57:01;13.00;99.90
18729;DHT22;9493;51.884;5.188;2023-04-23T14:59:29;13.00;99.90
18729;DHT22;9493;51.884;5.188;2023-04-23T15:01:55;13.00;99.90
18729;DHT22;9493;51.884;5.188;2023-04-23T15:04:22;13.00;99.90
18729;DHT22;9493;51.884;5.188;2023-04-23T15:06:49;12.90;99.90
18729;DHT22;9493;51.884;5.188;2023-04-23T15:09:16;12.80;99.90
18729;DHT22;9493;51.884;5.188;2023-04-23T15:11:42;12.90;99.90
18729;DHT22;9493;51.884;5.188;2023-04-23T15:14:18;12.90;99.90
18729;DHT22;9493;51.884;5.188;2023-04-23T15:16:47;12.90;99.90
18729;DHT22;9493;51.884;5.188;2023-04-23T15:19:14;12.90;99.90
18729;DHT22;9493;51.884;5.188;2023-04-23T15:21:42;12.90;99.90
18729;DHT22;9493;51.884;5.188;2023-04-23T15:24:09;12.90;99.90
18729;DHT22;9493;51.884;5.188;2023-04-23T15:26:36;12.90;99.90
18729;DHT22;9493;51.884;5.188;2023-04-23T15:29:03;13.10;99.90
18729;DHT22;9493;51.884;5.188;2023-04-23T15:31:33;13.10;99.90
18729;DHT22;9493;51.884;5.188;2023-04-23T15:34:01;12.90;99.90
18729;DHT22;9493;51.884;5.188;2023-04-23T15:36:30;12.80;99.90
18729;DHT22;9493;51.884;5.188;2023-04-23T15:38:57;12.60;99.90
18729;DHT22;9493;51.884;5.188;2023-04-23T15:41:24;12.60;99.90
18729;DHT22;9493;51.884;5.188;2023-04-23T15:43:51;12.50;99.90
18729;DHT22;9493;51.884;5.188;2023-04-23T15:46:19;12.40;99.90
18729;DHT22;9493;51.884;5.188;2023-04-23T15:48:46;12.40;99.90
18729;DHT22;9493;51.884;5.188;2023-04-23T15:51:14;12.30;99.90
18729;DHT22;9493;51.884;5.188;2023-04-23T15:53:41;12.20;99.90
18729;DHT22;9493;51.884;5.188;2023-04-23T15:56:08;12.20;99.90